createdAt,value
2022-10-28T00:01:20.256Z,15.50
2022-10-28T00:03:57.539Z,15.40
2022-10-28T00:06:31.885Z,15.40
2022-10-28T00:08:59.283Z,15.40
2022-10-28T00:11:30.601Z,15.40
2022-10-28T00:14:00.567Z,15.50
2022-10-28T00:16:31.519Z,15.50
2022-10-28T00:19:00.476Z,15.50
2022-10-28T00:21:30.814Z,15.50
2022-10-28T00:23:58.546Z,15.60
2022-10-28T00:26:31.557Z,15.60
2022-10-28T00:29:02.636Z,15.60
2022-10-28T00:31:31.530Z,15.60
2022-10-28T00:34:01.279Z,15.60
2022-10-28T00:36:33.970Z,15.60
2022-10-28T00:39:02.736Z,15.60
2022-10-28T00:41:36.221Z,15.60
2022-10-28T00:44:55.381Z,15.60
2022-10-28T00:47:43.534Z,15.60
2022-10-28T00:50:40.968Z,15.60
2022-10-28T00:53:20.707Z,15.60
2022-10-28T00:55:49.599Z,15.70
2022-10-28T00:58:18.726Z,15.70
2022-10-28T01:00:45.464Z,15.70
2022-10-28T01:03:12.304Z,15.70
2022-10-28T01:05:43.040Z,15.70
2022-10-28T01:08:10.571Z,15.70
2022-10-28T01:11:24.752Z,15.70
2022-10-28T01:14:16.683Z,15.60
2022-10-28T01:17:31.799Z,15.60
2022-10-28T01:20:49.733Z,15.60
2022-10-28T01:23:27.429Z,15.50
2022-10-28T01:26:22.947Z,15.50
2022-10-28T01:29:46.619Z,15.50
2022-10-28T01:32:41.405Z,15.60
2022-10-28T01:35:22.391Z,15.50
2022-10-28T01:38:16.373Z,15.50
2022-10-28T01:41:17.348Z,15.60
2022-10-28T01:44:08.176Z,15.50
2022-10-28T01:46:45.650Z,15.50
2022-10-28T01:49:26.633Z,15.60
2022-10-28T01:52:00.153Z,15.50
2022-10-28T01:54:32.143Z,15.50
2022-10-28T01:57:03.135Z,15.50
2022-10-28T01:59:31.676Z,15.40
2022-10-28T02:01:58.516Z,15.30
2022-10-28T02:04:25.485Z,15.30
2022-10-28T02:06:56.700Z,15.30
2022-10-28T02:09:58.004Z,15.30
2022-10-28T02:12:33.558Z,15.20
2022-10-28T02:15:09.581Z,15.20
2022-10-28T02:17:42.092Z,15.20
2022-10-28T02:20:43.855Z,15.10
2022-10-28T02:23:23.801Z,15.10
2022-10-28T02:26:30.196Z,15.10
2022-10-28T02:29:17.295Z,15.00
2022-10-28T02:31:53.306Z,15.10
2022-10-28T02:34:31.833Z,14.90
2022-10-28T02:37:03.588Z,14.90
2022-10-28T02:39:39.904Z,14.90
2022-10-28T02:42:20.201Z,15.00
2022-10-28T02:44:55.099Z,15.00
2022-10-28T02:47:28.802Z,15.10
2022-10-28T02:50:05.006Z,15.10
2022-10-28T02:52:34.606Z,15.20
2022-10-28T02:55:05.576Z,15.30
2022-10-28T02:57:44.683Z,15.20
2022-10-28T03:00:18.458Z,15.30
2022-10-28T03:02:45.176Z,15.30
2022-10-28T03:05:12.180Z,15.20
2022-10-28T03:07:39.064Z,15.20
2022-10-28T03:10:06.596Z,15.20
2022-10-28T03:12:33.381Z,15.20
2022-10-28T03:15:00.145Z,15.30
2022-10-28T03:17:26.932Z,15.40
2022-10-28T03:19:53.657Z,15.40
2022-10-28T03:22:20.599Z,15.40
2022-10-28T03:24:47.300Z,15.40
2022-10-28T03:27:14.022Z,15.50
2022-10-28T03:29:44.891Z,15.50
2022-10-28T03:32:13.694Z,15.50
2022-10-28T03:34:40.614Z,15.50
2022-10-28T03:37:07.339Z,15.50
2022-10-28T03:39:34.234Z,15.50
2022-10-28T03:42:01.198Z,15.40
2022-10-28T03:44:27.953Z,15.40
2022-10-28T03:46:54.693Z,15.40
2022-10-28T03:49:21.464Z,15.50
2022-10-28T03:51:48.872Z,15.40
2022-10-28T03:54:15.620Z,15.40
2022-10-28T03:56:42.425Z,15.40
2022-10-28T03:59:10.127Z,15.40
2022-10-28T04:01:37.156Z,15.40
2022-10-28T04:04:04.183Z,15.40
2022-10-28T04:06:30.898Z,15.40
2022-10-28T04:08:57.740Z,15.30
2022-10-28T04:11:24.459Z,15.30
2022-10-28T04:13:51.236Z,15.30
2022-10-28T04:16:18.044Z,15.30
2022-10-28T04:18:44.805Z,15.30
2022-10-28T04:21:11.900Z,15.30
2022-10-28T04:23:38.656Z,15.30
2022-10-28T04:26:05.685Z,15.20
2022-10-28T04:28:32.964Z,15.20
2022-10-28T04:30:59.850Z,15.30
2022-10-28T04:33:26.632Z,15.40
2022-10-28T04:35:53.347Z,15.40
2022-10-28T04:38:20.114Z,15.20
2022-10-28T04:40:49.212Z,15.20
2022-10-28T04:43:16.736Z,15.10
2022-10-28T04:45:43.508Z,15.10
2022-10-28T04:48:10.635Z,15.20
2022-10-28T04:50:37.711Z,15.10
2022-10-28T04:53:10.647Z,15.10
2022-10-28T04:55:37.409Z,15.00
2022-10-28T04:58:04.645Z,15.20
2022-10-28T05:00:31.571Z,15.20
2022-10-28T05:03:02.285Z,15.20
2022-10-28T05:05:29.217Z,15.10
2022-10-28T05:07:56.390Z,15.10
2022-10-28T05:10:23.428Z,15.10
2022-10-28T05:12:50.326Z,15.00
2022-10-28T05:15:17.284Z,14.80
2022-10-28T05:17:46.522Z,14.80
2022-10-28T05:20:17.268Z,14.70
2022-10-28T05:22:50.176Z,14.80
2022-10-28T05:25:18.585Z,14.80
2022-10-28T05:27:46.255Z,14.80
2022-10-28T05:30:14.533Z,14.80
2022-10-28T05:32:41.739Z,14.70
2022-10-28T05:35:09.959Z,14.70
2022-10-28T05:37:37.147Z,14.70
2022-10-28T05:40:04.823Z,14.60
2022-10-28T05:42:31.584Z,14.60
2022-10-28T05:44:58.353Z,14.60
2022-10-28T05:47:25.239Z,14.60
2022-10-28T05:49:52.155Z,14.50
2022-10-28T05:52:19.712Z,14.50
2022-10-28T05:54:46.526Z,14.40
2022-10-28T05:57:13.473Z,14.40
2022-10-28T05:59:40.227Z,14.40
2022-10-28T06:02:13.629Z,14.40
2022-10-28T06:04:42.064Z,14.40
2022-10-28T06:07:08.983Z,14.40
2022-10-28T06:09:36.008Z,14.40
2022-10-28T06:12:01.312Z,14.30
2022-10-28T06:14:28.111Z,14.30
2022-10-28T06:16:54.872Z,14.40
2022-10-28T06:19:21.668Z,14.50
2022-10-28T06:21:48.436Z,14.40
2022-10-28T06:24:15.237Z,14.40
2022-10-28T06:26:42.275Z,14.30
2022-10-28T06:29:10.141Z,14.30
2022-10-28T06:31:41.235Z,14.20
2022-10-28T06:34:08.947Z,14.30
2022-10-28T06:36:35.975Z,14.30
2022-10-28T06:39:03.319Z,14.30
2022-10-28T06:41:30.451Z,14.30
2022-10-28T06:43:57.338Z,14.30
2022-10-28T06:46:24.200Z,14.30
2022-10-28T06:48:57.038Z,14.40
2022-10-28T06:51:24.212Z,14.50
2022-10-28T06:53:52.197Z,14.40
2022-10-28T06:56:19.421Z,14.30
2022-10-28T06:58:54.154Z,14.40
2022-10-28T07:01:22.314Z,14.50
2022-10-28T07:03:49.619Z,14.50
2022-10-28T07:06:17.492Z,14.50
2022-10-28T07:08:44.756Z,14.60
2022-10-28T07:11:11.900Z,14.70
2022-10-28T07:13:38.693Z,14.80
2022-10-28T07:16:05.864Z,14.80
2022-10-28T07:18:32.680Z,14.80
2022-10-28T07:21:01.440Z,14.90
2022-10-28T07:23:32.421Z,14.90
2022-10-28T07:25:59.194Z,14.90
2022-10-28T07:28:27.207Z,14.90
2022-10-28T07:30:54.560Z,15.00
2022-10-28T07:33:21.558Z,15.00
2022-10-28T07:35:48.350Z,15.10
2022-10-28T07:38:15.785Z,15.10
2022-10-28T07:40:42.724Z,15.10
2022-10-28T07:43:09.759Z,15.20
2022-10-28T07:45:37.100Z,15.30
2022-10-28T07:48:06.129Z,15.40
2022-10-28T07:50:33.058Z,15.50
2022-10-28T07:53:00.470Z,15.60
2022-10-28T07:55:27.769Z,15.70
2022-10-28T07:57:54.779Z,15.70
2022-10-28T08:00:21.969Z,15.80
2022-10-28T08:02:48.868Z,15.80
2022-10-28T08:05:15.849Z,15.90
2022-10-28T08:07:42.621Z,15.90
2022-10-28T08:10:09.625Z,16.00
2022-10-28T08:12:36.488Z,16.00
2022-10-28T08:15:04.044Z,16.10
2022-10-28T08:17:30.994Z,16.20
2022-10-28T08:19:57.986Z,16.20
2022-10-28T08:22:24.920Z,16.30
2022-10-28T08:24:51.739Z,16.40
2022-10-28T08:27:18.555Z,16.50
2022-10-28T08:29:45.386Z,16.60
2022-10-28T08:32:12.240Z,16.70
2022-10-28T08:34:42.405Z,16.80
2022-10-28T08:37:10.655Z,16.80
2022-10-28T08:39:37.525Z,16.80
2022-10-28T08:42:19.653Z,16.80
2022-10-28T08:45:39.126Z,16.90
2022-10-28T08:48:10.812Z,16.90
2022-10-28T08:50:52.532Z,16.90
2022-10-28T08:54:08.813Z,17.00
2022-10-28T08:56:48.415Z,17.00
2022-10-28T08:59:32.442Z,17.10
2022-10-28T09:02:21.956Z,17.20
2022-10-28T09:05:01.522Z,17.30
2022-10-28T09:07:28.490Z,17.40
2022-10-28T09:09:56.176Z,17.50
2022-10-28T09:13:03.727Z,17.50
2022-10-28T09:15:59.618Z,17.50
2022-10-28T09:18:52.811Z,17.60
2022-10-28T09:21:46.965Z,17.60
2022-10-28T09:24:29.817Z,17.70
2022-10-28T09:27:34.055Z,17.70
2022-10-28T09:30:33.156Z,17.80
2022-10-28T09:33:41.763Z,17.80
2022-10-28T09:36:18.469Z,17.80
2022-10-28T09:38:47.594Z,17.80
2022-10-28T09:41:28.270Z,17.80
2022-10-28T09:44:36.498Z,17.90
2022-10-28T09:47:34.391Z,17.90
2022-10-28T09:50:11.619Z,18.00
2022-10-28T09:53:21.070Z,18.10
2022-10-28T09:55:49.780Z,18.20
2022-10-28T09:58:17.975Z,18.30
2022-10-28T10:00:45.465Z,18.40
2022-10-28T10:03:12.629Z,18.40
2022-10-28T10:05:47.380Z,18.40
2022-10-28T10:08:20.036Z,18.40
2022-10-28T10:10:54.359Z,18.50
2022-10-28T10:13:35.210Z,18.60
2022-10-28T10:16:19.580Z,18.60
2022-10-28T10:18:54.763Z,18.70
2022-10-28T10:21:48.764Z,18.70
2022-10-28T10:24:36.058Z,18.70
2022-10-28T10:27:19.733Z,18.70
2022-10-28T10:29:51.535Z,18.70
2022-10-28T10:32:24.598Z,18.80
2022-10-28T10:35:33.107Z,18.90
2022-10-28T10:38:04.385Z,19.00
2022-10-28T10:40:46.834Z,19.00
2022-10-28T10:43:32.075Z,19.10
2022-10-28T10:46:17.967Z,19.10
2022-10-28T10:48:45.213Z,19.10
2022-10-28T10:51:25.544Z,19.20
2022-10-28T10:53:57.976Z,19.30
2022-10-28T10:56:28.678Z,19.30
2022-10-28T10:59:02.244Z,19.30
2022-10-28T11:01:38.485Z,19.40
2022-10-28T11:04:08.421Z,19.40
2022-10-28T11:06:43.378Z,19.50
2022-10-28T11:09:39.509Z,19.60
2022-10-28T11:12:25.781Z,19.60
2022-10-28T11:14:58.590Z,19.60
2022-10-28T11:17:34.495Z,19.70
2022-10-28T11:20:35.427Z,19.70
2022-10-28T11:23:13.388Z,19.70
2022-10-28T11:25:52.602Z,19.80
2022-10-28T11:28:58.158Z,19.70
2022-10-28T11:31:46.187Z,19.90
2022-10-28T11:35:03.063Z,19.80
2022-10-28T11:37:39.429Z,19.80
2022-10-28T11:40:42.333Z,19.90
2022-10-28T11:43:26.493Z,19.90
2022-10-28T11:46:36.507Z,19.90
2022-10-28T11:49:28.151Z,20.00
2022-10-28T11:52:35.714Z,20.00
2022-10-28T11:55:42.386Z,20.00
2022-10-28T11:58:33.587Z,20.00
2022-10-28T12:01:27.440Z,19.90
2022-10-28T12:04:22.099Z,19.90
2022-10-28T12:07:28.234Z,20.00
2022-10-28T12:10:35.566Z,20.00
2022-10-28T12:13:39.827Z,20.00
2022-10-28T12:16:38.760Z,20.00
2022-10-28T12:19:31.636Z,20.10
2022-10-28T12:22:23.504Z,20.00
2022-10-28T12:24:52.082Z,19.90
2022-10-28T12:27:34.290Z,19.80
2022-10-28T12:30:16.991Z,19.80
2022-10-28T12:32:46.048Z,19.80
2022-10-28T12:35:31.528Z,19.90
2022-10-28T12:38:20.630Z,20.00
2022-10-28T12:41:06.489Z,19.90
2022-10-28T12:43:43.775Z,19.90
2022-10-28T12:46:44.886Z,19.90
2022-10-28T12:50:05.485Z,19.80
2022-10-28T12:52:53.215Z,19.80
2022-10-28T12:55:44.329Z,19.90
2022-10-28T12:58:34.059Z,19.90
2022-10-28T13:01:14.114Z,19.90
2022-10-28T13:03:41.353Z,19.90
2022-10-28T13:06:39.341Z,19.80
2022-10-28T13:09:37.838Z,19.80
2022-10-28T13:12:27.272Z,19.80
2022-10-28T13:15:21.921Z,19.90
2022-10-28T13:18:10.764Z,19.80
2022-10-28T13:20:59.302Z,19.70
2022-10-28T13:23:57.946Z,19.80
2022-10-28T13:26:34.440Z,19.70
2022-10-28T13:29:09.894Z,19.80
2022-10-28T13:31:46.312Z,19.80
2022-10-28T13:34:17.798Z,19.80
2022-10-28T13:36:56.495Z,19.80
2022-10-28T13:39:29.174Z,19.80
2022-10-28T13:42:18.860Z,19.80
2022-10-28T13:45:02.006Z,19.80
2022-10-28T13:47:34.153Z,19.80
2022-10-28T13:50:09.959Z,19.90
2022-10-28T13:52:45.040Z,19.80
2022-10-28T13:55:42.254Z,19.80
2022-10-28T13:58:23.523Z,19.80
2022-10-28T14:00:53.467Z,19.80
2022-10-28T14:03:30.240Z,19.80
2022-10-28T14:06:00.731Z,19.80
2022-10-28T14:08:31.011Z,19.80
2022-10-28T14:11:32.805Z,19.80
2022-10-28T14:14:04.529Z,19.80
2022-10-28T14:16:38.528Z,19.80
2022-10-28T14:19:11.118Z,19.80
2022-10-28T14:22:08.217Z,19.90
2022-10-28T14:24:41.632Z,19.90
2022-10-28T14:27:08.373Z,19.90
2022-10-28T14:29:55.048Z,19.90
2022-10-28T14:32:31.192Z,19.80
2022-10-28T14:35:20.353Z,19.90
2022-10-28T14:38:17.595Z,19.80
2022-10-28T14:41:02.952Z,19.80
2022-10-28T14:43:48.262Z,19.70
2022-10-28T14:47:21.963Z,19.70
2022-10-28T14:50:02.743Z,19.60
2022-10-28T14:52:37.131Z,19.60
2022-10-28T14:55:19.442Z,19.60
2022-10-28T14:57:46.188Z,19.60
2022-10-28T15:00:25.742Z,19.60
2022-10-28T15:02:54.362Z,19.60
2022-10-28T15:05:30.576Z,19.60
2022-10-28T15:08:04.010Z,19.60
2022-10-28T15:10:34.138Z,19.50
2022-10-28T15:13:01.342Z,19.50
2022-10-28T15:15:31.841Z,19.50
2022-10-28T15:18:00.002Z,19.50
2022-10-28T15:20:35.130Z,19.50
2022-10-28T15:23:23.262Z,19.50
2022-10-28T15:26:13.814Z,19.50
2022-10-28T15:28:42.630Z,19.40
2022-10-28T15:31:09.777Z,19.40
2022-10-28T15:33:42.383Z,19.40
2022-10-28T15:36:17.546Z,19.30
2022-10-28T15:38:47.092Z,19.40
2022-10-28T15:41:22.686Z,19.30
2022-10-28T15:43:58.998Z,19.40
2022-10-28T15:46:27.335Z,19.40
2022-10-28T15:49:00.080Z,19.40
2022-10-28T15:51:27.929Z,19.30
2022-10-28T15:54:11.691Z,19.30
2022-10-28T15:56:58.869Z,19.30
2022-10-28T15:59:26.759Z,19.30
2022-10-28T16:01:58.617Z,19.20
2022-10-28T16:04:43.877Z,19.20
2022-10-28T16:07:11.027Z,19.20
2022-10-28T16:09:47.469Z,19.20
2022-10-28T16:12:19.993Z,19.10
2022-10-28T16:15:01.276Z,19.10
2022-10-28T16:17:33.172Z,19.10
2022-10-28T16:20:15.478Z,19.10
2022-10-28T16:22:47.274Z,19.10
2022-10-28T16:25:20.681Z,19.10
2022-10-28T16:27:49.497Z,19.10
2022-10-28T16:30:16.508Z,19.00
2022-10-28T16:32:50.693Z,19.10
2022-10-28T16:35:24.073Z,19.00
2022-10-28T16:37:55.397Z,19.10
2022-10-28T16:40:52.791Z,19.00
2022-10-28T16:43:19.848Z,19.00
2022-10-28T16:45:49.031Z,19.00
2022-10-28T16:48:18.003Z,19.00
2022-10-28T16:50:51.218Z,19.00
2022-10-28T16:53:18.562Z,19.00
2022-10-28T16:55:45.430Z,19.00
2022-10-28T16:58:12.886Z,18.90
2022-10-28T17:00:40.531Z,19.00
2022-10-28T17:03:10.598Z,18.90
2022-10-28T17:05:37.388Z,18.90
2022-10-28T17:08:05.900Z,18.90
2022-10-28T17:10:37.074Z,18.90
2022-10-28T17:13:03.860Z,18.80
2022-10-28T17:15:30.630Z,18.80
2022-10-28T17:17:57.958Z,18.80
2022-10-28T17:20:24.705Z,18.70
2022-10-28T17:22:51.689Z,18.70
2022-10-28T17:25:19.119Z,18.70
2022-10-28T17:27:48.776Z,18.70
2022-10-28T17:30:19.132Z,18.70
2022-10-28T17:32:51.894Z,18.70
2022-10-28T17:35:21.211Z,18.70
2022-10-28T17:37:48.216Z,18.60
2022-10-28T17:40:15.782Z,18.60
2022-10-28T17:42:42.582Z,18.60
2022-10-28T17:45:10.759Z,18.60
2022-10-28T17:47:37.888Z,18.60
2022-10-28T17:50:05.480Z,18.60
2022-10-28T17:52:35.770Z,18.60
2022-10-28T17:55:06.250Z,18.60
2022-10-28T17:57:33.025Z,18.50
2022-10-28T17:59:59.833Z,18.60
2022-10-28T18:02:26.860Z,18.50
2022-10-28T18:04:53.660Z,18.60
2022-10-28T18:07:20.450Z,18.60
2022-10-28T18:09:47.167Z,18.60
2022-10-28T18:12:13.973Z,18.50
2022-10-28T18:14:40.795Z,18.40
2022-10-28T18:17:07.603Z,18.30
2022-10-28T18:19:34.369Z,18.30
2022-10-28T18:22:01.182Z,18.20
2022-10-28T18:24:27.950Z,18.20
2022-10-28T18:26:55.870Z,18.10
2022-10-28T18:29:22.746Z,18.00
2022-10-28T18:31:49.517Z,18.00
2022-10-28T18:34:16.698Z,17.90
2022-10-28T18:36:43.573Z,18.10
2022-10-28T18:39:10.347Z,18.10
2022-10-28T18:41:41.905Z,18.20
2022-10-28T18:44:16.836Z,18.40
2022-10-28T18:46:45.174Z,18.30
2022-10-28T18:49:12.360Z,18.30
2022-10-28T18:51:39.234Z,18.20
2022-10-28T18:54:06.191Z,18.10
2022-10-28T18:56:34.156Z,18.00
2022-10-28T18:59:04.240Z,18.00
2022-10-28T19:01:32.723Z,18.00
2022-10-28T19:04:02.432Z,18.00
2022-10-28T19:06:32.643Z,18.00
2022-10-28T19:09:04.595Z,17.70
2022-10-28T19:11:34.220Z,17.80
2022-10-28T19:14:04.752Z,17.70
2022-10-28T19:16:33.955Z,17.80
2022-10-28T19:19:04.239Z,17.60
2022-10-28T19:21:31.593Z,17.60
2022-10-28T19:23:58.811Z,17.50
2022-10-28T19:26:25.898Z,17.50
2022-10-28T19:28:52.907Z,17.30
2022-10-28T19:31:26.313Z,17.30
2022-10-28T19:33:54.666Z,17.40
2022-10-28T19:36:26.221Z,17.30
2022-10-28T19:38:54.929Z,17.20
2022-10-28T19:41:29.335Z,17.10
2022-10-28T19:44:01.745Z,17.00
2022-10-28T19:46:32.083Z,17.00
2022-10-28T19:49:01.218Z,17.00
2022-10-28T19:51:31.018Z,17.00
2022-10-28T19:54:00.864Z,17.10
2022-10-28T19:56:30.007Z,16.90
2022-10-28T19:59:00.507Z,16.90
2022-10-28T20:01:32.229Z,16.90
2022-10-28T20:03:59.794Z,16.90
2022-10-28T20:06:32.124Z,16.80
2022-10-28T20:08:58.889Z,17.00
2022-10-28T20:11:29.984Z,16.90
2022-10-28T20:14:04.219Z,16.70
2022-10-28T20:16:32.819Z,16.80
2022-10-28T20:18:59.989Z,16.90
2022-10-28T20:21:33.298Z,16.80
2022-10-28T20:24:01.094Z,16.70
2022-10-28T20:26:32.329Z,16.70
2022-10-28T20:29:02.834Z,16.50
2022-10-28T20:31:32.013Z,16.50
2022-10-28T20:34:03.339Z,16.40
2022-10-28T20:36:35.457Z,16.60
2022-10-28T20:39:05.460Z,16.50
2022-10-28T20:41:35.058Z,16.40
2022-10-28T20:44:02.943Z,16.30
2022-10-28T20:46:30.178Z,16.10
2022-10-28T20:48:57.278Z,16.00
2022-10-28T20:51:29.169Z,16.00
2022-10-28T20:53:56.386Z,15.90
2022-10-28T20:56:27.181Z,15.80
2022-10-28T20:58:55.741Z,15.80
2022-10-28T21:01:29.851Z,15.90
2022-10-28T21:04:03.768Z,15.80
2022-10-28T21:06:31.214Z,15.70
2022-10-28T21:08:58.540Z,15.70
2022-10-28T21:11:27.292Z,15.60
2022-10-28T21:13:58.462Z,15.60
2022-10-28T21:16:27.166Z,15.50
2022-10-28T21:18:54.601Z,15.40
2022-10-28T21:21:24.034Z,15.30
2022-10-28T21:23:51.405Z,15.20
2022-10-28T21:26:18.699Z,15.20
2022-10-28T21:28:50.244Z,15.10
2022-10-28T21:31:18.542Z,15.10
2022-10-28T21:33:45.842Z,15.00
2022-10-28T21:36:20.987Z,15.00
2022-10-28T21:38:47.810Z,15.00
2022-10-28T21:41:18.169Z,14.90
2022-10-28T21:43:48.605Z,14.70
2022-10-28T21:46:17.586Z,14.70
2022-10-28T21:48:44.702Z,14.70
2022-10-28T21:51:15.477Z,14.70
2022-10-28T21:53:44.160Z,14.70
2022-10-28T21:56:19.149Z,14.60
2022-10-28T21:58:48.828Z,14.50
2022-10-28T22:01:22.948Z,14.50
2022-10-28T22:03:51.879Z,14.40
2022-10-28T22:06:18.722Z,14.40
2022-10-28T22:08:46.690Z,14.40
2022-10-28T22:11:20.507Z,14.40
2022-10-28T22:14:02.834Z,14.50
2022-10-28T22:16:32.435Z,14.50
2022-10-28T22:19:02.311Z,14.40
2022-10-28T22:21:33.422Z,14.30
2022-10-28T22:24:00.156Z,14.20
2022-10-28T22:26:32.267Z,14.10
2022-10-28T22:29:00.114Z,14.20
2022-10-28T22:31:31.577Z,14.20
2022-10-28T22:33:59.476Z,14.10
2022-10-28T22:36:29.585Z,14.10
2022-10-28T22:38:56.403Z,14.10
2022-10-28T22:41:33.381Z,14.10
2022-10-28T22:44:02.054Z,14.10
2022-10-28T22:46:33.579Z,14.10
2022-10-28T22:49:00.387Z,14.10
2022-10-28T22:51:27.108Z,14.10
2022-10-28T22:53:54.000Z,14.00
2022-10-28T22:56:24.082Z,14.00
2022-10-28T22:59:00.219Z,13.90
2022-10-28T23:01:29.346Z,14.00
2022-10-28T23:03:56.625Z,14.00
2022-10-28T23:06:26.538Z,14.00
2022-10-28T23:08:53.865Z,13.90
2022-10-28T23:11:22.418Z,13.80
2022-10-28T23:13:54.033Z,13.80
2022-10-28T23:16:22.889Z,13.80
2022-10-28T23:18:50.247Z,13.80
2022-10-28T23:21:23.829Z,13.80
2022-10-28T23:23:56.071Z,13.80
2022-10-28T23:26:23.169Z,13.80
2022-10-28T23:28:52.588Z,13.70
2022-10-28T23:31:20.110Z,13.70
2022-10-28T23:33:47.545Z,13.70
2022-10-28T23:36:15.758Z,13.70
2022-10-28T23:38:42.948Z,13.60
2022-10-28T23:41:15.776Z,13.60
2022-10-28T23:43:42.841Z,13.60
2022-10-28T23:46:10.262Z,13.60
2022-10-28T23:48:37.289Z,13.60
2022-10-28T23:51:04.393Z,13.60
2022-10-28T23:53:31.470Z,13.50
2022-10-28T23:55:58.569Z,13.50
2022-10-28T23:58:25.818Z,13.60
